Time;durP1;ratioP1;P1;durP2;ratioP2;P2;SDS_P1;SDS_P2;PMS_P1;PMS_P2;Temp;Humidity;BMP_temperature;BMP_pressure;BME280_temperature;BME280_humidity;BME280_pressure;Samples;Min_cycle;Max_cycle;Signal;HPM_P1;HPM_P2
2022/04/13 00:01:43;;;;;;;17.13;8.30;;;12.90;99.90;;;;;;4881594;29;20052;-75
2022/04/13 00:04:11;;;;;;;14.32;8.20;;;12.80;99.90;;;;;;4881021;29;20123;-77
2022/04/13 00:06:38;;;;;;;16.67;8.35;;;12.90;99.90;;;;;;4896749;29;20041;-76
2022/04/13 00:09:08;;;;;;;15.27;8.00;;;12.80;99.90;;;;;;4885645;29;20063;-75
2022/04/13 00:11:34;;;;;;;14.55;8.27;;;12.80;99.90;;;;;;4906933;29;20432;-75
2022/04/13 00:14:01;;;;;;;14.30;7.97;;;12.80;99.90;;;;;;4889206;29;20049;-76
2022/04/13 00:16:27;;;;;;;16.98;8.88;;;12.80;99.90;;;;;;4905889;29;20123;-90
2022/04/13 00:18:53;;;;;;;15.05;7.78;;;12.80;99.90;;;;;;4904735;29;20043;-90
2022/04/13 00:21:18;;;;;;;15.50;7.82;;;12.80;99.90;;;;;;4901574;29;20061;-90
2022/04/13 00:23:44;;;;;;;16.67;8.30;;;12.80;99.90;;;;;;4901464;29;20041;-83
2022/04/13 00:26:10;;;;;;;15.57;8.25;;;12.80;99.90;;;;;;4901166;29;20072;-75
2022/04/13 00:28:36;;;;;;;16.13;8.07;;;12.80;99.90;;;;;;4901058;29;20131;-76
2022/04/13 00:31:02;;;;;;;14.88;7.85;;;12.80;99.90;;;;;;4900654;29;20108;-85
2022/04/13 00:33:28;;;;;;;17.63;8.68;;;12.70;99.90;;;;;;4884219;29;20056;-89
2022/04/13 00:35:55;;;;;;;16.45;8.43;;;12.70;99.90;;;;;;4901079;29;20051;-90
2022/04/13 00:38:22;;;;;;;15.90;7.95;;;12.70;99.90;;;;;;4903099;29;20056;-90
2022/04/13 00:40:49;;;;;;;14.18;8.20;;;12.60;99.90;;;;;;4907128;29;20045;-89
2022/04/13 00:43:14;;;;;;;15.77;8.05;;;12.60;99.90;;;;;;4888180;29;20044;-85
2022/04/13 00:45:47;;;;;;;14.30;7.47;;;12.60;99.90;;;;;;4902086;29;20077;-91
2022/04/13 00:48:19;;;;;;;;;;;12.70;99.90;;;;;;4885170;29;20066;-91
2022/04/13 00:50:45;;;;;;;;;;;12.60;99.90;;;;;;4901573;29;19930;-88
2022/04/13 00:53:12;;;;;;;16.05;7.90;;;12.70;99.90;;;;;;4885069;29;20367;-89
2022/04/13 00:55:40;;;;;;;15.27;7.70;;;12.80;99.90;;;;;;4884664;29;20453;-90
2022/04/13 00:58:09;;;;;;;14.50;7.93;;;12.70;99.90;;;;;;4868756;29;20059;-84
2022/04/13 01:00:38;;;;;;;13.52;7.95;;;12.60;99.90;;;;;;4883828;29;20063;-81
2022/04/13 01:03:04;;;;;;;14.05;7.93;;;12.60;99.90;;;;;;4900885;29;20460;-89
2022/04/13 01:05:30;;;;;;;15.18;7.97;;;12.50;99.90;;;;;;4900918;29;20092;-90
2022/04/13 01:07:57;;;;;;;16.17;8.77;;;12.40;99.90;;;;;;4900818;29;20935;-89
2022/04/13 01:10:25;;;;;;;15.52;7.85;;;12.30;99.90;;;;;;4901537;29;20052;-90
2022/04/13 01:12:51;;;;;;;15.15;8.27;;;12.30;99.90;;;;;;4901801;29;20056;-90
2022/04/13 01:15:16;;;;;;;15.75;7.72;;;12.10;99.90;;;;;;4883671;29;20170;-89
2022/04/13 01:17:43;;;;;;;13.60;7.60;;;12.00;99.90;;;;;;4883532;29;20053;-89
2022/04/13 01:20:11;;;;;;;13.43;7.75;;;11.90;99.90;;;;;;4900187;29;20052;-89
2022/04/13 01:22:37;;;;;;;14.77;7.32;;;11.90;99.90;;;;;;4900570;29;20116;-90
2022/04/13 01:25:03;;;;;;;14.00;7.72;;;11.80;99.90;;;;;;4900367;29;20056;-86
2022/04/13 01:27:29;;;;;;;13.82;7.30;;;11.80;99.90;;;;;;4883449;29;20059;-84
2022/04/13 01:29:55;;;;;;;14.43;7.43;;;11.70;99.90;;;;;;4899267;29;20100;-79
2022/04/13 01:32:20;;;;;;;14.98;7.65;;;11.90;99.90;;;;;;4867175;29;20060;-74
2022/04/13 01:34:50;;;;;;;14.05;7.07;;;11.60;99.90;;;;;;4883279;29;20127;-75
2022/04/13 01:37:17;;;;;;;14.02;6.90;;;11.60;99.90;;;;;;4899013;29;20048;-76
2022/04/13 01:39:43;;;;;;;12.30;6.38;;;11.60;99.90;;;;;;4899906;29;20072;-74
2022/04/13 01:42:09;;;;;;;14.68;7.20;;;11.60;99.90;;;;;;4899501;29;20446;-79
2022/04/13 01:44:34;;;;;;;12.98;7.05;;;11.80;99.90;;;;;;4899629;29;20485;-72
2022/04/13 01:47:00;;;;;;;12.50;7.10;;;11.50;99.90;;;;;;4883011;29;20055;-73
2022/04/13 01:49:26;;;;;;;12.57;6.55;;;11.50;99.90;;;;;;4899572;29;20493;-74
2022/04/13 01:51:51;;;;;;;12.30;6.50;;;11.50;99.90;;;;;;4897206;29;20553;-75
2022/04/13 01:54:17;;;;;;;13.10;6.57;;;11.40;99.90;;;;;;4899405;29;20131;-79
2022/04/13 01:56:42;;;;;;;13.13;6.85;;;11.50;99.90;;;;;;4898457;29;20048;-77
2022/04/13 01:59:08;;;;;;;11.98;6.68;;;11.40;99.90;;;;;;4899337;29;20088;-75
2022/04/13 02:01:40;;;;;;;10.65;6.53;;;11.40;99.90;;;;;;4882414;29;20056;-82
2022/04/13 02:04:19;;;;;;;14.77;8.05;;;11.40;99.90;;;;;;4899722;29;20060;-81
2022/04/13 02:06:45;;;;;;;16.08;6.60;;;11.40;99.90;;;;;;4899435;29;20048;-82
2022/04/13 02:09:11;;;;;;;12.40;6.57;;;11.30;99.90;;;;;;4882638;29;20402;-82
2022/04/13 02:11:37;;;;;;;12.95;6.40;;;11.40;99.90;;;;;;4902650;29;20051;-89
2022/04/13 02:14:03;;;;;;;15.13;6.38;;;11.30;99.90;;;;;;4889636;29;20064;-88
2022/04/13 02:16:28;;;;;;;12.98;7.20;;;11.30;99.90;;;;;;4882938;29;20047;-89
2022/04/13 02:18:54;;;;;;;12.75;7.47;;;11.30;99.90;;;;;;4900025;29;20040;-89
2022/04/13 02:21:20;;;;;;;12.02;6.72;;;11.30;99.90;;;;;;4899696;29;20499;-90
2022/04/13 02:23:46;;;;;;;13.20;7.13;;;11.40;99.90;;;;;;4899269;29;20048;-90
2022/04/13 02:26:12;;;;;;;12.57;6.95;;;11.30;99.90;;;;;;4899277;29;20056;-88
2022/04/13 02:28:38;;;;;;;12.48;6.63;;;11.30;99.90;;;;;;4898988;29;20052;-88
2022/04/13 02:31:04;;;;;;;14.98;6.75;;;11.30;99.90;;;;;;4866155;29;20055;-89
2022/04/13 02:33:32;;;;;;;12.85;6.97;;;11.30;99.90;;;;;;4899352;29;20062;-89
2022/04/13 02:35:58;;;;;;;12.45;6.75;;;11.30;99.90;;;;;;4899339;29;20045;-88
2022/04/13 02:38:25;;;;;;;11.85;7.10;;;11.30;99.90;;;;;;4882420;29;20052;-89
2022/04/13 02:40:50;;;;;;;11.77;7.13;;;11.30;99.90;;;;;;4881884;29;20128;-89
2022/04/13 02:43:16;;;;;;;13.20;7.38;;;11.30;99.90;;;;;;4898825;29;20132;-89
2022/04/13 02:45:42;;;;;;;16.42;7.90;;;11.30;99.90;;;;;;4899458;29;20040;-89
2022/04/13 02:48:10;;;;;;;14.23;6.85;;;11.20;99.90;;;;;;4882091;29;20136;-89
2022/04/13 02:50:37;;;;;;;14.85;7.10;;;11.60;99.90;;;;;;4882389;29;20084;-87
2022/04/13 02:53:03;;;;;;;13.02;6.80;;;11.20;99.90;;;;;;4898687;29;20520;-87
2022/04/13 02:55:29;;;;;;;15.38;7.30;;;11.20;99.90;;;;;;4898810;29;20504;-89
2022/04/13 02:57:55;;;;;;;14.52;7.25;;;11.20;99.90;;;;;;4898571;29;20052;-89
2022/04/13 03:00:20;;;;;;;13.80;6.90;;;11.20;99.90;;;;;;4898531;29;20135;-89
2022/04/13 03:02:46;;;;;;;12.70;7.25;;;11.20;99.90;;;;;;4898715;29;20044;-89
2022/04/13 03:05:12;;;;;;;13.52;6.78;;;11.10;99.90;;;;;;4898781;29;20084;-91
2022/04/13 03:07:37;;;;;;;12.23;7.10;;;11.10;99.90;;;;;;4881708;29;20574;-88
2022/04/13 03:10:04;;;;;;;14.85;7.18;;;11.10;99.90;;;;;;4898421;29;20442;-90
2022/04/13 03:12:32;;;;;;;12.68;7.47;;;11.00;99.90;;;;;;4897804;29;20079;-89
2022/04/13 03:14:57;;;;;;;14.13;7.60;;;10.90;99.90;;;;;;4881343;29;20067;-87
2022/04/13 03:17:23;;;;;;;16.70;7.85;;;10.90;99.90;;;;;;4898392;29;20048;-90
2022/04/13 03:19:49;;;;;;;14.65;7.30;;;10.80;99.90;;;;;;4898264;29;20086;-90
2022/04/13 03:22:15;;;;;;;13.25;7.28;;;10.80;99.90;;;;;;4898349;29;20076;-90
2022/04/13 03:24:40;;;;;;;13.55;7.95;;;10.80;99.90;;;;;;4898173;29;20183;-80
2022/04/13 03:27:06;;;;;;;13.40;7.03;;;10.80;99.90;;;;;;4897980;29;20921;-79
2022/04/13 03:29:32;;;;;;;13.10;7.90;;;10.80;99.90;;;;;;4880679;29;20497;-84
2022/04/13 03:31:58;;;;;;;12.85;7.82;;;10.80;99.90;;;;;;4897674;29;20064;-73
2022/04/13 03:34:24;;;;;;;13.10;7.18;;;10.90;99.90;;;;;;4880973;29;20044;-74
2022/04/13 03:36:50;;;;;;;14.82;8.07;;;10.80;99.90;;;;;;4897852;29;20036;-72
2022/04/13 03:39:16;;;;;;;13.80;7.88;;;10.60;99.90;;;;;;4897993;29;20048;-76
2022/04/13 03:41:43;;;;;;;13.98;8.02;;;10.60;99.90;;;;;;4897702;29;20047;-74
2022/04/13 03:44:09;;;;;;;13.73;8.52;;;10.70;99.90;;;;;;4896986;29;20131;-77
2022/04/13 03:46:34;;;;;;;14.40;8.25;;;10.60;99.90;;;;;;4880926;29;20136;-81
2022/04/13 03:49:00;;;;;;;15.68;7.68;;;10.60;99.90;;;;;;4897963;29;20045;-76
2022/04/13 03:51:26;;;;;;;15.68;8.38;;;10.60;99.90;;;;;;4880957;29;20408;-79
2022/04/13 03:53:52;;;;;;;13.05;7.57;;;10.60;99.90;;;;;;4898153;29;20101;-82
2022/04/13 03:56:18;;;;;;;14.70;8.32;;;10.60;99.90;;;;;;4898757;29;20136;-77
2022/04/13 03:58:44;;;;;;;17.25;8.88;;;10.60;99.90;;;;;;4880695;29;20104;-90
2022/04/13 04:01:10;;;;;;;14.95;8.55;;;10.50;99.90;;;;;;4880503;29;20057;-89
2022/04/13 04:03:37;;;;;;;13.93;8.15;;;10.50;99.90;;;;;;4880903;29;20052;-89
2022/04/13 04:06:03;;;;;;;16.48;8.93;;;10.50;99.90;;;;;;4880740;29;20060;-90
2022/04/13 04:08:29;;;;;;;16.23;8.15;;;10.50;99.90;;;;;;4881677;29;20122;-90
2022/04/13 04:10:55;;;;;;;16.45;8.60;;;10.50;99.90;;;;;;4880856;29;20059;-87
2022/04/13 04:13:21;;;;;;;15.13;8.35;;;10.60;99.90;;;;;;4865392;29;20057;-90
2022/04/13 04:15:47;;;;;;;16.48;8.73;;;10.50;99.90;;;;;;4880845;29;20040;-89
2022/04/13 04:18:13;;;;;;;17.52;9.10;;;10.60;99.90;;;;;;4897462;29;20041;-90
2022/04/13 04:20:38;;;;;;;15.80;9.30;;;10.50;99.90;;;;;;4897936;29;20081;-87
2022/04/13 04:23:04;;;;;;;16.73;9.57;;;10.60;99.90;;;;;;4897836;29;20454;-88
2022/04/13 04:25:30;;;;;;;15.88;8.68;;;10.60;99.90;;;;;;4880696;29;20063;-89
2022/04/13 04:27:55;;;;;;;15.02;8.82;;;10.60;99.90;;;;;;4897349;29;20416;-89
2022/04/13 04:30:21;;;;;;;15.32;9.18;;;10.80;99.90;;;;;;4897465;29;20049;-89
2022/04/13 04:32:47;;;;;;;17.58;9.55;;;10.60;99.90;;;;;;4896973;29;20061;-88
2022/04/13 04:35:12;;;;;;;16.05;8.52;;;10.70;99.90;;;;;;4880941;29;20048;-79
2022/04/13 04:37:38;;;;;;;15.07;8.93;;;10.80;99.90;;;;;;4880538;29;20072;-89
2022/04/13 04:40:05;;;;;;;13.70;7.20;;;10.80;99.90;;;;;;4880531;29;20553;-89
2022/04/13 04:42:54;;;;;;;15.93;7.38;;;10.80;99.90;;;;;;4897398;29;20053;-87
2022/04/13 04:45:20;;;;;;;12.98;6.97;;;10.80;99.90;;;;;;4897200;29;20503;-89
2022/04/13 04:47:50;;;;;;;15.50;6.90;;;11.00;99.90;;;;;;4897027;29;20099;-89
2022/04/13 04:50:17;;;;;;;16.00;6.85;;;11.00;99.90;;;;;;4897064;29;20045;-89
2022/04/13 04:52:44;;;;;;;16.40;6.90;;;10.90;99.90;;;;;;4897403;29;20048;-90
2022/04/13 04:55:10;;;;;;;13.90;7.43;;;10.90;99.90;;;;;;4883620;29;20048;-89
2022/04/13 04:57:37;;;;;;;16.00;7.75;;;10.90;99.90;;;;;;4900639;29;20072;-89
2022/04/13 05:00:06;;;;;;;15.43;7.40;;;11.00;99.90;;;;;;4900759;29;20132;-90
2022/04/13 05:02:32;;;;;;;16.88;7.70;;;11.00;99.90;;;;;;4901357;29;20052;-88
2022/04/13 05:04:57;;;;;;;15.38;7.32;;;11.00;99.90;;;;;;4883930;29;20056;-89
2022/04/13 05:07:23;;;;;;;13.85;6.72;;;11.00;99.90;;;;;;4910597;29;20100;-89
2022/04/13 05:09:49;;;;;;;15.13;7.85;;;11.10;99.90;;;;;;4909920;29;20052;-86
2022/04/13 05:12:14;;;;;;;16.23;7.43;;;11.10;99.90;;;;;;4883253;29;20135;-89
2022/04/13 05:14:40;;;;;;;15.57;6.45;;;11.10;99.90;;;;;;4901089;29;20408;-89
2022/04/13 05:17:06;;;;;;;16.35;8.23;;;11.10;99.90;;;;;;4900637;29;20056;-88
2022/04/13 05:19:33;;;;;;;17.50;7.10;;;11.10;99.90;;;;;;4883369;29;20112;-76
2022/04/13 05:21:59;;;;;;;14.30;7.30;;;11.20;99.90;;;;;;4899411;29;20119;-77
2022/04/13 05:24:25;;;;;;;15.32;7.72;;;11.20;99.90;;;;;;4867422;29;20564;-75
2022/04/13 05:26:51;;;;;;;18.98;7.97;;;11.20;99.90;;;;;;4882815;29;20087;-75
2022/04/13 05:29:16;;;;;;;18.75;7.82;;;11.20;99.90;;;;;;4900192;29;20191;-73
2022/04/13 05:31:42;;;;;;;17.65;7.38;;;11.30;99.90;;;;;;4883333;29;20486;-76
2022/04/13 05:34:08;;;;;;;14.93;7.75;;;11.30;99.90;;;;;;4899955;29;20064;-76
2022/04/13 05:36:34;;;;;;;13.73;7.15;;;11.30;99.90;;;;;;4882875;29;20049;-78
2022/04/13 05:39:00;;;;;;;16.30;7.63;;;11.40;99.90;;;;;;4882803;29;20200;-78
2022/04/13 05:41:25;;;;;;;14.85;7.72;;;11.40;99.90;;;;;;4883224;29;20056;-89
2022/04/13 05:43:51;;;;;;;16.23;7.05;;;11.40;99.90;;;;;;4897939;29;20071;-82
2022/04/13 05:46:17;;;;;;;17.77;7.68;;;11.50;99.90;;;;;;4883580;29;20071;-88
2022/04/13 05:48:42;;;;;;;17.65;8.20;;;11.50;99.90;;;;;;4900186;29;20381;-86
2022/04/13 05:51:09;;;;;;;16.48;7.57;;;11.50;99.90;;;;;;4900136;29;20382;-88
2022/04/13 05:53:36;;;;;;;15.68;8.38;;;11.50;99.90;;;;;;4883391;29;20052;-89
2022/04/13 05:56:02;;;;;;;17.33;8.00;;;11.60;99.90;;;;;;4901443;29;20049;-88
2022/04/13 05:58:28;;;;;;;14.98;7.75;;;11.70;99.90;;;;;;4907544;29;20054;-90
2022/04/13 06:00:54;;;;;;;17.88;7.47;;;11.80;99.90;;;;;;4904779;29;20119;-90
2022/04/13 06:03:22;;;;;;;18.17;7.93;;;11.80;99.90;;;;;;4903092;29;20044;-86
2022/04/13 06:05:48;;;;;;;16.92;7.30;;;11.80;99.90;;;;;;4889734;29;20095;-86
2022/04/13 06:08:14;;;;;;;14.25;7.03;;;11.90;99.90;;;;;;4918949;29;20048;-84
2022/04/13 06:10:39;;;;;;;15.27;7.78;;;11.90;99.90;;;;;;4919286;29;20047;-83
2022/04/13 06:13:05;;;;;;;13.75;7.53;;;12.00;99.90;;;;;;4906096;29;20092;-84
2022/04/13 06:15:31;;;;;;;15.70;8.63;;;12.00;99.90;;;;;;4922712;29;20100;-93
2022/04/13 06:17:58;;;;;;;21.13;8.73;;;12.00;99.90;;;;;;4917648;29;20049;-91
2022/04/13 06:20:24;;;;;;;18.35;7.97;;;12.10;99.90;;;;;;4918598;29;20108;-93
2022/04/13 06:22:50;;;;;;;20.75;8.98;;;12.10;99.90;;;;;;4916961;29;20052;-75
2022/04/13 06:25:16;;;;;;;20.08;8.65;;;12.10;99.90;;;;;;4914996;29;20048;-92
2022/04/13 06:27:41;;;;;;;16.27;8.25;;;12.10;99.90;;;;;;4911676;29;20050;-90
2022/04/13 06:30:08;;;;;;;15.20;8.13;;;12.10;99.90;;;;;;4893027;29;20565;-92
2022/04/13 06:32:36;;;;;;;19.30;8.38;;;12.10;99.90;;;;;;4908087;29;20080;-92
2022/04/13 06:35:04;;;;;;;17.42;8.57;;;12.10;99.90;;;;;;4905255;29;20059;-89
2022/04/13 06:37:29;;;;;;;16.13;7.72;;;12.10;99.90;;;;;;4912215;29;20108;-88
2022/04/13 06:39:55;;;;;;;14.45;7.28;;;12.10;99.90;;;;;;4901618;29;20083;-88
2022/04/13 06:42:22;;;;;;;16.92;7.82;;;12.20;99.90;;;;;;4909479;29;20080;-89
2022/04/13 06:44:50;;;;;;;17.58;7.82;;;12.50;99.90;;;;;;4908134;29;20088;-84
2022/04/13 06:47:16;;;;;;;15.68;7.93;;;12.40;99.90;;;;;;4892340;29;20045;-86
2022/04/13 06:49:41;;;;;;;16.63;7.97;;;12.30;99.90;;;;;;4906181;29;20111;-92
2022/04/13 06:52:07;;;;;;;17.10;8.93;;;12.40;99.90;;;;;;4898815;29;20080;-89
2022/04/13 06:54:33;;;;;;;17.48;7.60;;;12.40;99.90;;;;;;4877290;29;20048;-82
2022/04/13 06:56:58;;;;;;;16.80;9.40;;;12.60;99.90;;;;;;4897255;29;20076;-83
2022/04/13 06:59:24;;;;;;;15.48;7.43;;;12.60;99.90;;;;;;4893276;29;20092;-79
2022/04/13 07:01:50;;;;;;;18.45;7.63;;;12.70;99.90;;;;;;4895459;29;20057;-84
2022/04/13 07:04:15;;;;;;;16.90;7.22;;;12.80;99.90;;;;;;4896220;29;20124;-87
2022/04/13 07:06:41;;;;;;;14.77;7.60;;;12.80;99.90;;;;;;4896773;29;20506;-88
2022/04/13 07:09:06;;;;;;;15.68;7.93;;;13.30;99.90;;;;;;4896053;29;20413;-88
2022/04/13 07:11:32;;;;;;;14.25;6.97;;;13.00;99.90;;;;;;4897036;29;20053;-82
2022/04/13 07:13:58;;;;;;;14.70;6.75;;;13.10;99.90;;;;;;4911022;29;20155;-84
2022/04/13 07:16:23;;;;;;;17.73;8.43;;;13.20;99.90;;;;;;4896286;29;20040;-87
2022/04/13 07:18:49;;;;;;;18.70;8.55;;;13.40;99.90;;;;;;4896598;29;20048;-88
2022/04/13 07:21:15;;;;;;;16.80;8.00;;;13.50;99.90;;;;;;4896463;29;20048;-70
2022/04/13 07:23:40;;;;;;;16.10;7.53;;;13.60;99.90;;;;;;4914385;29;20048;-69
2022/04/13 07:26:06;;;;;;;15.77;7.40;;;13.70;99.90;;;;;;4914965;29;20040;-68
2022/04/13 07:28:32;;;;;;;15.27;6.90;;;13.80;99.90;;;;;;4914517;29;20052;-75
2022/04/13 07:30:58;;;;;;;18.42;7.50;;;13.90;99.90;;;;;;4896782;29;20496;-78
2022/04/13 07:33:24;;;;;;;16.05;7.75;;;14.00;99.90;;;;;;4878908;29;20466;-81
2022/04/13 07:35:49;;;;;;;18.70;7.72;;;14.10;99.90;;;;;;4866088;29;20087;-87
2022/04/13 07:38:15;;;;;;;17.05;6.72;;;14.20;99.90;;;;;;4897957;29;20043;-83
2022/04/13 07:40:41;;;;;;;16.05;7.82;;;14.30;99.90;;;;;;4893283;29;20040;-77
2022/04/13 07:43:07;;;;;;;12.60;6.82;;;14.40;99.90;;;;;;4876958;29;20052;-81
2022/04/13 07:45:33;;;;;;;17.13;7.25;;;14.50;99.90;;;;;;4896503;29;20439;-82
2022/04/13 07:47:58;;;;;;;16.35;7.90;;;14.60;99.90;;;;;;4892952;29;20492;-77
2022/04/13 07:50:24;;;;;;;18.50;7.53;;;14.80;99.90;;;;;;4894564;29;20049;-81
2022/04/13 07:52:50;;;;;;;14.45;7.72;;;14.80;99.90;;;;;;4897025;29;20053;-77
2022/04/13 07:55:16;;;;;;;16.35;8.27;;;14.90;99.90;;;;;;4882058;29;20040;-71
2022/04/13 07:57:41;;;;;;;15.90;7.20;;;15.00;99.90;;;;;;4894798;29;20055;-71
2022/04/13 08:00:10;;;;;;;17.15;8.43;;;15.10;99.90;;;;;;4896209;29;20052;-70
2022/04/13 08:02:36;;;;;;;16.27;6.25;;;15.20;99.90;;;;;;4892951;29;20048;-77
2022/04/13 08:05:02;;;;;;;13.07;6.07;;;15.30;99.90;;;;;;4861051;29;20516;-77
2022/04/13 08:07:29;;;;;;;15.45;6.78;;;15.40;99.90;;;;;;4893983;29;20052;-78
2022/04/13 08:09:54;;;;;;;15.85;5.97;;;15.50;99.90;;;;;;4892495;29;20049;-78
2022/04/13 08:12:20;;;;;;;17.58;6.40;;;15.60;99.90;;;;;;4877568;29;20104;-78
2022/04/13 08:14:46;;;;;;;15.35;6.78;;;15.60;99.90;;;;;;4860407;29;20060;-78
2022/04/13 08:17:15;;;;;;;12.57;6.03;;;15.70;99.90;;;;;;4875808;29;20726;-78
2022/04/13 08:19:40;;;;;;;13.10;5.80;;;15.90;99.90;;;;;;4875591;29;20064;-78
2022/04/13 08:22:06;;;;;;;13.48;5.22;;;16.10;99.90;;;;;;4893395;29;20408;-80
2022/04/13 08:24:32;;;;;;;12.30;4.85;;;16.30;99.90;;;;;;4875623;29;20057;-78
2022/04/13 08:27:01;;;;;;;13.57;4.40;;;16.30;99.90;;;;;;4893215;29;20718;-79
2022/04/13 08:29:26;;;;;;;9.52;4.50;;;16.20;99.90;;;;;;4879573;29;20072;-78
2022/04/13 08:31:52;;;;;;;12.93;5.05;;;16.20;99.90;;;;;;4866516;29;20119;-79
2022/04/13 08:34:18;;;;;;;14.88;5.43;;;16.10;99.90;;;;;;4881162;29;20548;-79
2022/04/13 08:36:43;;;;;;;11.82;6.10;;;16.10;99.90;;;;;;4882244;29;20049;-79
2022/04/13 08:39:13;;;;;;;13.75;6.40;;;16.10;99.90;;;;;;4897311;29;20048;-79
2022/04/13 08:41:57;;;;;;;12.73;6.25;;;16.10;99.90;;;;;;4899227;29;20053;-79
2022/04/13 08:44:38;;;;;;;17.13;7.35;;;16.10;99.90;;;;;;4898237;29;20048;-78
2022/04/13 08:47:11;;;;;;;14.45;7.15;;;16.00;99.90;;;;;;4899173;29;20056;-78
2022/04/13 08:49:39;;;;;;;16.05;6.80;;;15.80;99.90;;;;;;4896850;29;20389;-79
2022/04/13 08:52:08;;;;;;;14.38;8.05;;;15.70;99.90;;;;;;4898442;29;20045;-79
2022/04/13 08:54:45;;;;;;;15.68;7.88;;;15.70;99.90;;;;;;4894913;29;20049;-79
2022/04/13 08:57:14;;;;;;;17.25;7.60;;;15.80;99.90;;;;;;4898733;29;20048;-78
2022/04/13 09:00:03;;;;;;;16.35;7.40;;;15.60;99.90;;;;;;4879192;29;20064;-77
2022/04/13 09:02:50;;;;;;;14.30;7.10;;;15.60;99.90;;;;;;4897707;29;20134;-76
2022/04/13 09:05:22;;;;;;;14.40;7.53;;;15.50;99.90;;;;;;4896488;29;20052;-79
2022/04/13 09:07:53;;;;;;;16.35;8.10;;;15.50;99.90;;;;;;4878777;29;20496;-78
2022/04/13 09:10:23;;;;;;;15.50;7.80;;;15.60;99.90;;;;;;4881467;29;20096;-78
2022/04/13 09:12:50;;;;;;;17.15;8.88;;;15.70;99.90;;;;;;4880948;29;20064;-77
2022/04/13 09:15:16;;;;;;;15.00;7.85;;;15.70;99.90;;;;;;4897679;29;20096;-77
2022/04/13 09:17:42;;;;;;;15.73;7.38;;;15.80;99.90;;;;;;4879936;29;20087;-75
2022/04/13 09:20:09;;;;;;;15.60;7.30;;;15.90;99.90;;;;;;4897609;29;20503;-78
2022/04/13 09:22:37;;;;;;;13.13;6.65;;;16.00;99.90;;;;;;4897878;29;20397;-78
2022/04/13 09:25:05;;;;;;;14.32;7.10;;;16.20;99.90;;;;;;4897962;29;20134;-79
2022/04/13 09:27:32;;;;;;;15.02;7.32;;;16.30;99.90;;;;;;4898547;29;20056;-79
2022/04/13 09:29:58;;;;;;;17.77;7.20;;;16.50;99.90;;;;;;4897100;29;20131;-79
2022/04/13 09:32:23;;;;;;;17.00;7.63;;;16.60;99.90;;;;;;4895695;29;20161;-77
2022/04/13 09:34:51;;;;;;;13.68;6.13;;;16.60;99.90;;;;;;4864813;29;20061;-79
2022/04/13 09:37:18;;;;;;;12.93;6.63;;;16.60;99.90;;;;;;4893503;29;20096;-79
2022/04/13 09:39:45;;;;;;;12.07;5.72;;;16.80;99.90;;;;;;4896536;29;20055;-78
2022/04/13 09:42:13;;;;;;;12.18;5.60;;;16.90;99.90;;;;;;4897403;29;20128;-78
2022/04/13 09:44:41;;;;;;;14.43;6.80;;;17.10;99.90;;;;;;4880092;29;20116;-79
2022/04/13 09:47:11;;;;;;;14.27;6.10;;;17.10;99.90;;;;;;4877231;29;20081;-80
2022/04/13 09:49:55;;;;;;;15.85;6.35;;;17.20;99.90;;;;;;4879152;29;20060;-80
2022/04/13 09:52:38;;;;;;;14.35;6.28;;;17.20;99.90;;;;;;4865085;29;20141;-78
2022/04/13 09:55:05;;;;;;;12.73;6.13;;;17.50;99.90;;;;;;4879066;29;20064;-79
2022/04/13 09:57:31;;;;;;;14.27;5.80;;;17.50;99.90;;;;;;4897789;29;20128;-80
2022/04/13 10:00:01;;;;;;;12.38;5.72;;;17.60;99.90;;;;;;4879101;29;20088;-77
2022/04/13 10:02:38;;;;;;;11.50;5.50;;;17.70;99.90;;;;;;4897190;29;20045;-77
2022/04/13 10:05:06;;;;;;;15.30;6.07;;;17.80;99.90;;;;;;4897671;29;20044;-78
2022/04/13 10:07:32;;;;;;;12.13;6.30;;;18.00;99.90;;;;;;4896832;29;20135;-79
2022/04/13 10:09:57;;;;;;;12.23;5.45;;;18.10;99.90;;;;;;4878361;29;20136;-78
2022/04/13 10:12:23;;;;;;;11.50;5.65;;;18.20;99.90;;;;;;4897021;29;20378;-77
2022/04/13 10:14:49;;;;;;;14.80;5.70;;;18.30;99.90;;;;;;4880228;29;20493;-78
2022/04/13 10:17:20;;;;;;;11.70;4.97;;;18.40;99.90;;;;;;4897263;29;20052;-79
2022/04/13 10:19:54;;;;;;;13.23;5.30;;;18.50;99.90;;;;;;4895242;29;20511;-78
2022/04/13 10:22:20;;;;;;;11.57;5.22;;;18.60;99.90;;;;;;4866681;29;20052;-78
2022/04/13 10:24:46;;;;;;;13.27;6.25;;;18.70;99.90;;;;;;4878821;29;20060;-78
2022/04/13 10:27:20;;;;;;;13.82;5.70;;;18.60;99.90;;;;;;4896804;29;20504;-78
2022/04/13 10:29:47;;;;;;;12.63;5.65;;;18.80;99.90;;;;;;4878176;29;20589;-74
2022/04/13 10:32:24;;;;;;;13.27;5.13;;;18.90;99.90;;;;;;4879359;29;20132;-78
2022/04/13 10:34:59;;;;;;;11.73;5.45;;;19.00;99.90;;;;;;4896693;29;20416;-76
2022/04/13 10:37:26;;;;;;;13.05;5.40;;;19.10;99.90;;;;;;4860844;29;20051;-77
2022/04/13 10:39:52;;;;;;;10.40;4.88;;;19.20;99.90;;;;;;4878697;29;20466;-79
2022/04/13 10:42:21;;;;;;;13.90;5.57;;;19.30;99.90;;;;;;4895960;29;20095;-79
2022/04/13 10:45:04;;;;;;;11.75;5.22;;;19.40;99.90;;;;;;4878582;29;20095;-78
2022/04/13 10:47:52;;;;;;;15.48;5.40;;;19.50;99.90;;;;;;4878979;29;20061;-79
2022/04/13 10:50:27;;;;;;;11.63;5.32;;;19.60;99.90;;;;;;4877022;29;20068;-77
2022/04/13 10:52:58;;;;;;;14.73;6.30;;;19.70;99.90;;;;;;4895666;29;20132;-78
2022/04/13 10:55:27;;;;;;;14.37;5.80;;;19.80;99.90;;;;;;4878701;29;20127;-78
2022/04/13 10:58:17;;;;;;;12.10;6.20;;;19.90;99.90;;;;;;4861721;29;20063;-78
2022/04/13 11:00:46;;;;;;;11.18;5.55;;;20.20;99.90;;;;;;4895748;29;20045;-78
2022/04/13 11:03:12;;;;;;;16.17;6.10;;;20.40;99.90;;;;;;4879165;29;20544;-77
2022/04/13 11:05:40;;;;;;;13.90;5.85;;;20.50;99.90;;;;;;4895535;29;20439;-77
2022/04/13 11:08:21;;;;;;;12.05;5.60;;;20.50;99.90;;;;;;4877340;29;20064;-76
2022/04/13 11:10:48;;;;;;;10.65;4.93;;;20.40;99.90;;;;;;4878810;29;20128;-73
2022/04/13 11:13:19;;;;;;;11.27;5.05;;;20.20;99.90;;;;;;4878113;29;20139;-76
2022/04/13 11:15:46;;;;;;;12.32;4.90;;;20.10;99.90;;;;;;4896002;29;20119;-74
2022/04/13 11:18:14;;;;;;;10.45;4.43;;;20.00;99.90;;;;;;4893741;29;20509;-76
2022/04/13 11:21:02;;;;;;;10.55;4.13;;;19.90;99.90;;;;;;4896055;29;20412;-75
2022/04/13 11:23:50;;;;;;;11.82;3.70;;;19.70;99.90;;;;;;4803761;29;20062;-77
2022/04/13 11:26:33;;;;;;;9.75;3.53;;;19.60;99.90;;;;;;4804734;29;20070;-77
2022/04/13 11:29:21;;;;;;;8.57;3.47;;;19.50;99.90;;;;;;4803530;29;20069;-74
2022/04/13 11:32:01;;;;;;;8.65;3.50;;;19.40;99.90;;;;;;4822685;29;20042;-77
2022/04/13 11:34:37;;;;;;;10.25;3.80;;;19.40;99.90;;;;;;4804250;29;20061;-74
2022/04/13 11:37:05;;;;;;;7.85;3.10;;;19.30;99.90;;;;;;4803138;29;20415;-74
2022/04/13 11:39:49;;;;;;;9.20;3.20;;;19.20;99.90;;;;;;4816785;29;20050;-75
2022/04/13 11:42:20;;;;;;;9.10;2.83;;;19.10;99.90;;;;;;4802176;29;20439;-76
2022/04/13 11:45:04;;;;;;;9.40;2.70;;;19.00;99.90;;;;;;4817099;29;20051;-75
2022/04/13 11:47:46;;;;;;;9.07;2.90;;;18.90;99.90;;;;;;4815907;29;20054;-79
2022/04/13 11:50:16;;;;;;;8.60;2.85;;;19.00;99.90;;;;;;4817999;29;20073;-81
2022/04/13 11:52:59;;;;;;;7.82;2.60;;;19.00;99.90;;;;;;4787786;29;20062;-76
2022/04/13 11:55:25;;;;;;;;;;;19.10;99.90;;;;;;4818159;29;20057;-78
2022/04/13 11:57:57;;;;;;;6.78;2.22;;;19.00;99.90;;;;;;4786679;29;20027;-76
2022/04/13 12:00:50;;;;;;;5.57;2.05;;;19.10;99.90;;;;;;4835644;29;20092;-74
2022/04/13 12:03:26;;;;;;;7.35;2.35;;;19.10;99.90;;;;;;4896555;29;20080;-79
2022/04/13 12:06:00;;;;;;;8.05;2.60;;;18.90;99.90;;;;;;4899937;29;20047;-81
2022/04/13 12:08:32;;;;;;;6.72;2.22;;;18.80;99.90;;;;;;4880751;29;20078;-74
2022/04/13 12:10:59;;;;;;;5.72;2.30;;;18.80;99.90;;;;;;4896568;29;20048;-76
2022/04/13 12:13:26;;;;;;;7.20;2.60;;;18.70;99.90;;;;;;4899576;29;20072;-72
2022/04/13 12:15:56;;;;;;;6.57;2.65;;;18.60;99.90;;;;;;4897345;29;20052;-76
2022/04/13 12:18:25;;;;;;;5.97;2.65;;;18.50;99.90;;;;;;4893158;29;20090;-78
2022/04/13 12:21:05;;;;;;;8.30;2.60;;;18.50;99.90;;;;;;4897910;29;20317;-78
2022/04/13 12:23:34;;;;;;;8.00;2.60;;;18.60;99.90;;;;;;4879780;29;20048;-84
2022/04/13 12:26:00;;;;;;;6.80;3.00;;;18.40;99.90;;;;;;4897705;29;20041;-83
2022/04/13 12:28:26;;;;;;;8.23;3.30;;;18.40;99.90;;;;;;4878645;29;20048;-75
2022/04/13 12:31:06;;;;;;;8.57;3.60;;;18.40;99.90;;;;;;4881099;29;20041;-76
2022/04/13 12:33:33;;;;;;;10.75;3.53;;;18.40;99.90;;;;;;4880045;29;20067;-76
2022/04/13 12:36:10;;;;;;;10.05;3.92;;;18.40;99.90;;;;;;4879687;29;20048;-72
2022/04/13 12:38:42;;;;;;;9.30;3.22;;;18.40;99.90;;;;;;4893466;29;20048;-75
2022/04/13 12:41:12;;;;;;;8.73;3.40;;;18.50;99.90;;;;;;4897402;29;20048;-73
2022/04/13 12:43:43;;;;;;;7.43;2.58;;;18.60;99.90;;;;;;4893660;29;20143;-72